createdAt,value
2023-01-30T00:01:18.005Z,9.27
2023-01-30T00:03:48.203Z,9.03
2023-01-30T00:06:17.087Z,11.83
2023-01-30T00:08:45.864Z,7.07
2023-01-30T00:11:15.213Z,10.93
2023-01-30T00:13:44.286Z,10.17
2023-01-30T00:16:15.191Z,10.37
2023-01-30T00:18:44.183Z,8.90
2023-01-30T00:21:15.237Z,8.20
2023-01-30T00:23:44.501Z,10.93
2023-01-30T00:26:14.336Z,9.93
2023-01-30T00:28:42.786Z,11.67
2023-01-30T00:31:11.493Z,10.67
2023-01-30T00:33:40.302Z,10.80
2023-01-30T00:36:09.429Z,9.87
2023-01-30T00:38:39.746Z,9.47
2023-01-30T00:41:08.282Z,10.03
2023-01-30T00:43:54.640Z,10.23
2023-01-30T00:46:44.284Z,8.90
2023-01-30T00:49:12.876Z,10.70
2023-01-30T00:51:41.352Z,10.37
2023-01-30T00:54:11.710Z,10.90
2023-01-30T00:56:40.579Z,9.67
2023-01-30T00:59:09.231Z,11.40
2023-01-30T01:01:38.820Z,9.50
2023-01-30T01:04:08.947Z,10.90
2023-01-30T01:06:37.476Z,11.07
2023-01-30T01:09:06.254Z,9.63
2023-01-30T01:11:36.394Z,11.50
2023-01-30T01:14:05.765Z,12.07
2023-01-30T01:16:34.896Z,9.47
2023-01-30T01:19:03.914Z,11.17
2023-01-30T01:21:32.586Z,8.97
2023-01-30T01:24:01.978Z,11.33
2023-01-30T01:26:31.131Z,10.83
2023-01-30T01:29:01.514Z,11.77
2023-01-30T01:31:30.608Z,9.67
2023-01-30T01:33:59.647Z,8.17
2023-01-30T01:36:52.209Z,10.07
2023-01-30T01:39:17.261Z,10.50
2023-01-30T01:41:44.801Z,9.00
2023-01-30T01:44:17.603Z,11.33
2023-01-30T01:46:48.382Z,9.50
2023-01-30T01:49:19.443Z,10.77
2023-01-30T01:51:51.187Z,10.53
2023-01-30T01:54:21.640Z,11.27
2023-01-30T01:56:51.144Z,9.23
2023-01-30T01:59:23.636Z,11.63
2023-01-30T02:01:53.036Z,9.23
2023-01-30T02:04:46.686Z,10.40
2023-01-30T02:07:16.992Z,10.40
2023-01-30T02:09:45.764Z,9.93
2023-01-30T02:12:16.326Z,9.07
2023-01-30T02:14:46.859Z,9.40
2023-01-30T02:17:15.425Z,10.37
2023-01-30T02:19:47.876Z,11.47
2023-01-30T02:22:34.554Z,9.00
2023-01-30T02:25:28.389Z,10.50
2023-01-30T02:28:12.171Z,10.57
2023-01-30T02:30:54.786Z,7.73
2023-01-30T02:33:29.096Z,10.20
2023-01-30T02:36:02.089Z,6.27
2023-01-30T02:38:35.703Z,8.10
2023-01-30T02:41:10.428Z,9.63
2023-01-30T02:43:41.916Z,7.90
2023-01-30T02:46:14.503Z,10.60
2023-01-30T02:48:46.019Z,9.10
2023-01-30T02:51:16.598Z,10.47
2023-01-30T02:53:45.880Z,7.77
2023-01-30T02:56:14.550Z,10.10
2023-01-30T02:58:46.032Z,11.10
2023-01-30T03:01:25.380Z,10.20
2023-01-30T03:04:06.366Z,10.60
2023-01-30T03:06:53.782Z,11.93
2023-01-30T03:09:25.249Z,10.67
2023-01-30T03:12:00.991Z,10.37
2023-01-30T03:14:32.636Z,10.40
2023-01-30T03:17:03.262Z,10.90
2023-01-30T03:19:31.991Z,10.93
2023-01-30T03:22:00.594Z,11.47
2023-01-30T03:24:31.046Z,12.20
2023-01-30T03:27:02.937Z,13.50
2023-01-30T03:29:31.633Z,10.80
2023-01-30T03:32:00.356Z,11.93
2023-01-30T03:34:30.593Z,12.87
2023-01-30T03:36:59.159Z,10.40
2023-01-30T03:39:28.198Z,12.83
2023-01-30T03:41:56.877Z,13.73
2023-01-30T03:44:25.366Z,12.00
2023-01-30T03:46:53.972Z,13.07
2023-01-30T03:49:22.578Z,11.77
2023-01-30T03:51:52.473Z,10.03
2023-01-30T03:54:21.681Z,13.57
2023-01-30T03:56:50.433Z,12.07
2023-01-30T03:59:18.950Z,11.23
2023-01-30T04:01:47.708Z,12.13
2023-01-30T04:04:16.194Z,13.00
2023-01-30T04:06:44.993Z,12.63
2023-01-30T04:09:14.848Z,11.87
2023-01-30T04:11:43.490Z,12.33
2023-01-30T04:14:11.943Z,13.50
2023-01-30T04:16:40.560Z,12.30
2023-01-30T04:19:09.326Z,11.03
2023-01-30T04:21:38.021Z,12.33
2023-01-30T04:24:07.018Z,13.63
2023-01-30T04:26:37.264Z,12.50
2023-01-30T04:29:05.840Z,8.77
2023-01-30T04:31:34.678Z,12.57
2023-01-30T04:34:03.145Z,10.27
2023-01-30T04:36:31.937Z,10.87
2023-01-30T04:39:00.501Z,11.63
2023-01-30T04:41:28.952Z,11.30
2023-01-30T04:43:58.777Z,11.23
2023-01-30T04:46:27.673Z,12.10
2023-01-30T04:48:56.333Z,10.93
2023-01-30T04:51:24.915Z,10.13
2023-01-30T04:53:53.932Z,10.53
2023-01-30T04:56:22.722Z,11.37
2023-01-30T04:58:51.151Z,10.60
2023-01-30T05:01:24.131Z,9.93
2023-01-30T05:03:53.182Z,9.40
2023-01-30T05:06:22.137Z,8.70
2023-01-30T05:08:51.094Z,6.40
2023-01-30T05:11:19.596Z,10.87
2023-01-30T05:13:49.017Z,9.83
2023-01-30T05:16:18.442Z,10.20
2023-01-30T05:18:48.347Z,9.30
2023-01-30T05:21:18.482Z,9.57
2023-01-30T05:23:47.206Z,9.03
2023-01-30T05:26:16.141Z,10.10
2023-01-30T05:28:52.906Z,6.50
2023-01-30T05:31:21.695Z,10.20
2023-01-30T05:33:52.620Z,9.83
2023-01-30T05:36:22.168Z,12.47
2023-01-30T05:38:50.884Z,10.80
2023-01-30T05:41:19.555Z,9.90
2023-01-30T05:43:50.884Z,9.30
2023-01-30T05:46:19.416Z,10.00
2023-01-30T05:48:48.657Z,9.97
2023-01-30T05:51:19.839Z,10.30
2023-01-30T05:53:48.302Z,9.57
2023-01-30T05:56:17.484Z,10.90
2023-01-30T05:58:46.452Z,10.00
2023-01-30T06:01:15.166Z,9.70
2023-01-30T06:03:43.848Z,10.60
2023-01-30T06:06:13.529Z,9.60
2023-01-30T06:08:44.020Z,9.63
2023-01-30T06:11:13.687Z,8.80
2023-01-30T06:13:42.935Z,9.37
2023-01-30T06:16:14.297Z,10.63
2023-01-30T06:18:44.792Z,8.33
2023-01-30T06:21:13.523Z,10.43
2023-01-30T06:23:43.541Z,9.70
2023-01-30T06:26:13.080Z,10.30
2023-01-30T06:28:42.198Z,9.20
2023-01-30T06:31:11.793Z,10.77
2023-01-30T06:33:40.657Z,9.27
2023-01-30T06:36:09.716Z,10.53
2023-01-30T06:38:38.462Z,9.80
2023-01-30T06:41:08.768Z,10.67
2023-01-30T06:43:37.589Z,10.63
2023-01-30T06:46:06.240Z,11.40
2023-01-30T06:48:34.946Z,10.83
2023-01-30T06:51:03.531Z,11.13
2023-01-30T06:53:32.266Z,11.00
2023-01-30T06:56:00.933Z,10.97
2023-01-30T06:58:31.056Z,11.63
2023-01-30T07:01:00.395Z,11.87
2023-01-30T07:03:28.955Z,12.57
2023-01-30T07:05:57.473Z,12.43
2023-01-30T07:08:25.914Z,13.67
2023-01-30T07:10:54.498Z,13.43
2023-01-30T07:13:22.973Z,14.03
2023-01-30T07:15:52.790Z,13.33
2023-01-30T07:18:22.003Z,15.10
2023-01-30T07:20:50.495Z,14.60
2023-01-30T07:23:23.230Z,14.83
2023-01-30T07:25:52.029Z,14.47
2023-01-30T07:28:20.433Z,14.77
2023-01-30T07:30:52.899Z,14.13
2023-01-30T07:33:23.042Z,15.83
2023-01-30T07:35:51.643Z,15.33
2023-01-30T07:38:20.866Z,14.33
2023-01-30T07:40:49.663Z,13.07
2023-01-30T07:43:18.605Z,13.53
2023-01-30T07:45:47.654Z,12.83
2023-01-30T07:48:16.974Z,11.70
2023-01-30T07:50:47.299Z,9.10
2023-01-30T07:53:17.883Z,7.33
2023-01-30T07:55:46.533Z,5.50
2023-01-30T07:58:15.991Z,5.07
2023-01-30T08:00:44.783Z,4.23
2023-01-30T08:03:14.567Z,4.23
2023-01-30T08:05:44.118Z,4.50
2023-01-30T08:08:14.462Z,3.40
2023-01-30T08:10:43.173Z,4.20
2023-01-30T08:13:11.701Z,4.47
2023-01-30T08:15:40.650Z,4.83
2023-01-30T08:18:09.250Z,4.50
2023-01-30T08:20:38.318Z,4.37
2023-01-30T08:23:07.156Z,4.07
2023-01-30T08:25:37.191Z,4.93
2023-01-30T08:28:06.296Z,5.17
2023-01-30T08:30:35.055Z,4.00
2023-01-30T08:33:04.958Z,3.97
2023-01-30T08:35:33.467Z,4.30
2023-01-30T08:38:03.702Z,2.97
2023-01-30T08:40:32.439Z,4.43
2023-01-30T08:43:02.498Z,3.17
2023-01-30T08:45:31.170Z,3.37
2023-01-30T08:48:00.416Z,3.43
2023-01-30T08:50:29.957Z,2.83
2023-01-30T08:52:58.391Z,3.17
2023-01-30T08:55:26.974Z,2.93
2023-01-30T08:57:57.920Z,3.57
2023-01-30T09:00:27.862Z,3.40
2023-01-30T09:02:56.562Z,3.63
2023-01-30T09:05:25.086Z,4.13
2023-01-30T09:07:53.723Z,3.27
2023-01-30T09:10:24.410Z,3.30
2023-01-30T09:12:53.147Z,3.07
2023-01-30T09:15:21.808Z,2.63
2023-01-30T09:17:53.560Z,2.93
2023-01-30T09:20:22.313Z,3.00
2023-01-30T09:22:50.816Z,3.10
2023-01-30T09:25:19.822Z,2.43
2023-01-30T09:27:49.961Z,2.87
2023-01-30T09:30:19.333Z,3.93
2023-01-30T09:32:47.893Z,3.30
2023-01-30T09:35:18.340Z,4.17
2023-01-30T09:37:50.005Z,3.63
2023-01-30T09:40:19.555Z,3.57
2023-01-30T09:42:56.728Z,3.07
2023-01-30T09:45:31.119Z,2.70
2023-01-30T09:48:02.738Z,3.10
2023-01-30T09:50:44.846Z,3.77
2023-01-30T09:53:17.005Z,3.17
2023-01-30T09:55:46.469Z,3.37
2023-01-30T09:58:18.792Z,3.13
2023-01-30T10:00:48.420Z,2.53
2023-01-30T10:03:19.187Z,3.03
2023-01-30T10:05:51.029Z,3.27
2023-01-30T10:08:31.724Z,3.30
2023-01-30T10:11:10.079Z,2.87
2023-01-30T10:13:46.308Z,2.50
2023-01-30T10:16:19.657Z,3.30
2023-01-30T10:19:02.998Z,3.03
2023-01-30T10:21:39.384Z,3.60
2023-01-30T10:24:18.146Z,3.73
2023-01-30T10:26:47.008Z,4.23
2023-01-30T10:29:17.773Z,3.57
2023-01-30T10:31:48.177Z,4.47
2023-01-30T10:34:19.001Z,3.50
2023-01-30T10:36:53.929Z,4.30
2023-01-30T10:39:26.385Z,4.20
2023-01-30T10:41:57.439Z,4.63
2023-01-30T10:44:26.266Z,3.47
2023-01-30T10:47:04.724Z,3.87
2023-01-30T10:49:38.627Z,4.43
2023-01-30T10:52:14.817Z,3.60
2023-01-30T10:54:46.686Z,3.00
2023-01-30T10:57:20.112Z,3.13
2023-01-30T10:59:54.190Z,5.27
2023-01-30T11:02:26.476Z,5.00
2023-01-30T11:04:59.924Z,3.70
2023-01-30T11:07:31.910Z,2.83
2023-01-30T11:10:01.067Z,3.30
2023-01-30T11:12:29.607Z,3.43
2023-01-30T11:14:59.868Z,3.80
2023-01-30T11:17:32.551Z,3.83
2023-01-30T11:20:05.063Z,4.00
2023-01-30T11:22:36.812Z,3.03
2023-01-30T11:25:10.123Z,3.57
2023-01-30T11:27:38.597Z,3.33
2023-01-30T11:30:08.934Z,4.47
2023-01-30T11:32:37.550Z,3.57
2023-01-30T11:35:20.304Z,3.70
2023-01-30T11:37:51.678Z,3.83
2023-01-30T11:40:25.897Z,3.70
2023-01-30T11:42:55.221Z,4.40
2023-01-30T11:45:27.043Z,3.63
2023-01-30T11:47:58.372Z,3.50
2023-01-30T11:50:39.477Z,3.40
2023-01-30T11:53:18.483Z,4.87
2023-01-30T11:55:56.671Z,3.63
2023-01-30T11:58:32.839Z,4.13
2023-01-30T12:01:02.195Z,3.93
2023-01-30T12:03:31.387Z,4.47
2023-01-30T12:06:00.765Z,4.57
2023-01-30T12:08:42.679Z,3.97
2023-01-30T12:11:26.284Z,3.47
2023-01-30T12:13:56.145Z,4.13
2023-01-30T12:16:29.431Z,3.80
2023-01-30T12:19:01.520Z,3.10
2023-01-30T12:21:36.226Z,2.77
2023-01-30T12:24:09.395Z,3.20
2023-01-30T12:26:43.088Z,3.87
2023-01-30T12:29:19.310Z,3.33
2023-01-30T12:31:50.827Z,3.30
2023-01-30T12:34:27.577Z,3.37
2023-01-30T12:37:04.812Z,3.53
2023-01-30T12:39:43.020Z,4.33
2023-01-30T12:42:23.720Z,3.43
2023-01-30T12:45:01.087Z,3.63
2023-01-30T12:47:41.215Z,3.03
2023-01-30T12:50:23.049Z,3.57
2023-01-30T12:53:11.352Z,3.30
2023-01-30T12:55:47.705Z,3.23
2023-01-30T12:58:20.469Z,4.47
2023-01-30T13:00:57.675Z,3.93
2023-01-30T13:03:31.180Z,2.70
2023-01-30T13:06:04.116Z,3.60
2023-01-30T13:08:39.660Z,2.73
2023-01-30T13:11:19.334Z,2.30
2023-01-30T13:13:50.585Z,2.93
2023-01-30T13:16:23.845Z,3.40
2023-01-30T13:18:54.002Z,3.03
2023-01-30T13:21:24.479Z,3.73
2023-01-30T13:24:03.233Z,2.93
2023-01-30T13:26:36.412Z,3.03
2023-01-30T13:29:06.618Z,3.77
2023-01-30T13:31:39.245Z,3.40
2023-01-30T13:34:12.998Z,3.37
2023-01-30T13:36:51.155Z,3.67
2023-01-30T13:39:24.863Z,3.23
2023-01-30T13:41:57.592Z,4.03
2023-01-30T13:44:30.757Z,3.77
2023-01-30T13:47:08.396Z,2.63
2023-01-30T13:49:40.697Z,2.70
2023-01-30T13:52:11.206Z,3.00
2023-01-30T13:54:45.168Z,3.80
2023-01-30T13:57:21.843Z,3.60
2023-01-30T14:00:07.484Z,3.40
2023-01-30T14:02:39.038Z,3.60
2023-01-30T14:05:08.987Z,3.07
2023-01-30T14:07:41.851Z,2.90
2023-01-30T14:10:18.087Z,3.00
2023-01-30T14:12:49.442Z,2.83
2023-01-30T14:15:24.277Z,3.17
2023-01-30T14:18:06.912Z,3.30
2023-01-30T14:20:37.531Z,3.03
2023-01-30T14:23:08.983Z,3.53
2023-01-30T14:25:49.839Z,3.40
2023-01-30T14:28:55.379Z,2.60
2023-01-30T14:31:53.992Z,3.20
2023-01-30T14:34:49.701Z,2.20
2023-01-30T14:37:35.902Z,2.67
2023-01-30T14:40:06.456Z,2.23
2023-01-30T14:42:38.813Z,1.90
2023-01-30T14:45:15.633Z,2.80
2023-01-30T14:47:46.738Z,2.60
2023-01-30T14:50:20.526Z,1.90
2023-01-30T14:52:50.466Z,1.47
2023-01-30T14:55:25.052Z,1.90
2023-01-30T14:57:56.255Z,2.10
2023-01-30T15:00:26.969Z,1.97
2023-01-30T15:02:57.035Z,1.77
2023-01-30T15:05:32.192Z,1.90
2023-01-30T15:08:04.848Z,2.03
2023-01-30T15:10:43.036Z,2.30
2023-01-30T15:13:17.484Z,2.83
2023-01-30T15:15:52.855Z,2.30
2023-01-30T15:18:33.023Z,2.90
2023-01-30T15:21:11.005Z,3.17
2023-01-30T15:23:49.555Z,2.97
2023-01-30T15:26:26.403Z,2.70
2023-01-30T15:29:02.808Z,3.03
2023-01-30T15:31:31.454Z,3.07
2023-01-30T15:34:02.203Z,2.83
2023-01-30T15:36:32.255Z,3.20
2023-01-30T15:39:03.370Z,3.13
2023-01-30T15:41:35.764Z,3.77
2023-01-30T15:44:22.543Z,3.40
2023-01-30T15:46:57.153Z,3.30
2023-01-30T15:49:42.449Z,2.47
2023-01-30T15:52:13.954Z,3.30
2023-01-30T15:54:43.956Z,3.17
2023-01-30T15:57:20.054Z,2.83
2023-01-30T15:59:51.335Z,3.13
2023-01-30T16:02:25.116Z,2.87
2023-01-30T16:05:05.264Z,2.77
2023-01-30T16:07:35.093Z,2.93
2023-01-30T16:10:19.774Z,3.20
2023-01-30T16:12:50.677Z,3.40
2023-01-30T16:15:20.816Z,4.17
2023-01-30T16:17:54.419Z,3.40
2023-01-30T16:20:23.082Z,4.10
2023-01-30T16:22:51.790Z,3.37
2023-01-30T16:25:23.060Z,4.40
2023-01-30T16:27:53.746Z,3.70
2023-01-30T16:30:23.726Z,3.63
2023-01-30T16:32:56.380Z,3.80
2023-01-30T16:35:33.143Z,4.70
2023-01-30T16:38:13.131Z,3.80
2023-01-30T16:40:47.612Z,3.03
2023-01-30T16:43:22.658Z,3.63
2023-01-30T16:46:33.950Z,3.83
2023-01-30T16:49:04.631Z,3.30
2023-01-30T16:51:33.405Z,3.30
2023-01-30T16:54:04.020Z,3.17
2023-01-30T16:56:38.153Z,3.33
2023-01-30T16:59:18.565Z,3.10
2023-01-30T17:01:48.456Z,2.67
2023-01-30T17:04:22.234Z,2.77
2023-01-30T17:06:53.304Z,2.33
2023-01-30T17:09:43.049Z,3.07
2023-01-30T17:12:31.359Z,3.27
2023-01-30T17:15:19.321Z,3.40
2023-01-30T17:17:53.336Z,3.13
2023-01-30T17:20:24.325Z,3.37
2023-01-30T17:22:54.180Z,3.17
2023-01-30T17:25:29.356Z,2.90
2023-01-30T17:27:58.097Z,3.90
2023-01-30T17:30:31.577Z,3.17
2023-01-30T17:33:01.473Z,3.17
2023-01-30T17:35:30.055Z,3.07
2023-01-30T17:38:05.373Z,2.80
2023-01-30T17:40:35.429Z,2.83
2023-01-30T17:43:04.297Z,2.87
2023-01-30T17:45:32.829Z,2.67
2023-01-30T17:48:06.713Z,2.90
2023-01-30T17:50:36.625Z,4.30
2023-01-30T17:53:05.328Z,2.63
2023-01-30T17:55:43.569Z,3.47
2023-01-30T17:58:13.991Z,3.50
2023-01-30T18:00:42.569Z,3.80
2023-01-30T18:03:16.449Z,2.83
2023-01-30T18:05:46.984Z,3.23
2023-01-30T18:08:17.829Z,2.97
2023-01-30T18:10:48.119Z,3.37
2023-01-30T18:13:16.619Z,4.93
2023-01-30T18:15:47.031Z,4.00
2023-01-30T18:18:17.969Z,2.63
2023-01-30T18:20:48.420Z,3.03
2023-01-30T18:23:16.831Z,2.67
2023-01-30T18:25:45.308Z,2.97
2023-01-30T18:28:13.796Z,2.83
2023-01-30T18:30:44.595Z,2.30
2023-01-30T18:33:13.516Z,4.63
2023-01-30T18:35:43.308Z,3.33
2023-01-30T18:38:17.341Z,3.43
2023-01-30T18:40:47.492Z,3.40
2023-01-30T18:43:16.291Z,2.67
2023-01-30T18:45:47.222Z,1.90
2023-01-30T18:48:19.683Z,3.47
2023-01-30T18:50:49.518Z,2.90
2023-01-30T18:53:18.164Z,2.30
2023-01-30T18:55:52.220Z,2.27
2023-01-30T18:58:26.562Z,2.60
2023-01-30T19:00:55.457Z,2.37
2023-01-30T19:03:23.949Z,3.03
2023-01-30T19:05:53.739Z,2.37
2023-01-30T19:08:23.319Z,2.97
2023-01-30T19:10:54.018Z,2.90
2023-01-30T19:13:33.753Z,3.50
2023-01-30T19:16:03.610Z,2.53
2023-01-30T19:18:33.984Z,2.80
2023-01-30T19:21:03.885Z,4.17
2023-01-30T19:23:34.040Z,2.90
2023-01-30T19:26:02.565Z,3.17
2023-01-30T19:28:33.710Z,2.23
2023-01-30T19:31:06.643Z,2.77
2023-01-30T19:33:35.126Z,3.13
2023-01-30T19:36:11.841Z,2.30
2023-01-30T19:38:40.701Z,3.33
2023-01-30T19:41:12.555Z,3.80
2023-01-30T19:43:41.673Z,3.70
2023-01-30T19:46:12.006Z,2.63
2023-01-30T19:48:47.069Z,2.60
2023-01-30T19:51:21.759Z,3.10
2023-01-30T19:53:53.499Z,3.47
2023-01-30T19:56:22.755Z,2.20
2023-01-30T19:58:52.651Z,2.80
2023-01-30T20:01:22.083Z,2.50
2023-01-30T20:03:56.670Z,2.90
2023-01-30T20:06:27.513Z,3.10
2023-01-30T20:08:58.370Z,2.43
2023-01-30T20:11:28.350Z,2.00
2023-01-30T20:13:57.471Z,2.87
2023-01-30T20:16:30.182Z,2.83
2023-01-30T20:19:03.219Z,2.80
2023-01-30T20:21:34.179Z,2.53
2023-01-30T20:24:02.918Z,2.47
2023-01-30T20:26:32.563Z,3.37
2023-01-30T20:29:01.677Z,3.40
2023-01-30T20:31:32.687Z,3.07
2023-01-30T20:34:07.112Z,4.00
2023-01-30T20:36:37.078Z,4.53
2023-01-30T20:39:14.523Z,4.93
2023-01-30T20:41:44.443Z,3.97
2023-01-30T20:44:14.147Z,3.57
2023-01-30T20:46:43.615Z,3.53
2023-01-30T20:49:15.756Z,3.30
2023-01-30T20:51:46.165Z,3.10
2023-01-30T20:54:16.017Z,2.90
2023-01-30T20:56:45.721Z,2.97
2023-01-30T20:59:15.940Z,2.47
2023-01-30T21:01:45.057Z,3.70
2023-01-30T21:04:14.679Z,3.20
2023-01-30T21:06:46.051Z,4.53
2023-01-30T21:09:18.056Z,2.67
2023-01-30T21:11:47.451Z,3.40
2023-01-30T21:14:16.720Z,3.73
2023-01-30T21:16:45.572Z,3.77
2023-01-30T21:19:16.933Z,3.83
2023-01-30T21:21:51.299Z,4.93
2023-01-30T21:24:22.599Z,4.30
2023-01-30T21:26:51.409Z,5.30
2023-01-30T21:29:21.295Z,3.43
2023-01-30T21:31:49.921Z,3.90
2023-01-30T21:34:21.168Z,3.67
2023-01-30T21:37:10.139Z,3.03
2023-01-30T21:40:00.219Z,3.17
2023-01-30T21:42:48.753Z,3.10
2023-01-30T21:45:20.787Z,3.80
2023-01-30T21:47:51.955Z,4.10
2023-01-30T21:50:25.019Z,3.00
2023-01-30T21:52:53.584Z,3.60
2023-01-30T21:55:26.104Z,2.50
2023-01-30T21:57:57.198Z,3.77
2023-01-30T22:00:28.211Z,3.23
2023-01-30T22:02:56.659Z,4.13
2023-01-30T22:05:25.244Z,3.60
2023-01-30T22:07:55.706Z,3.50
2023-01-30T22:10:25.534Z,3.30
2023-01-30T22:12:54.985Z,3.13
2023-01-30T22:15:23.685Z,3.70
2023-01-30T22:17:52.090Z,3.63
2023-01-30T22:20:21.180Z,2.87
2023-01-30T22:22:49.725Z,3.33
2023-01-30T22:25:18.642Z,3.43
2023-01-30T22:27:51.008Z,3.23
2023-01-30T22:30:20.023Z,3.50
2023-01-30T22:32:48.873Z,3.10
2023-01-30T22:35:17.809Z,3.53
2023-01-30T22:37:46.454Z,3.20
2023-01-30T22:40:14.995Z,3.73
2023-01-30T22:42:50.146Z,2.87
2023-01-30T22:45:18.988Z,3.10
2023-01-30T22:47:47.725Z,3.20
2023-01-30T22:50:17.504Z,3.07
2023-01-30T22:52:48.818Z,3.03
2023-01-30T22:55:17.699Z,2.73
2023-01-30T22:57:47.488Z,2.70
2023-01-30T23:00:17.928Z,2.83
2023-01-30T23:02:46.670Z,3.47
2023-01-30T23:05:16.623Z,3.97
2023-01-30T23:07:45.058Z,2.70
2023-01-30T23:10:13.492Z,2.87
2023-01-30T23:12:59.432Z,3.33
2023-01-30T23:15:29.790Z,3.03
2023-01-30T23:18:27.551Z,3.77
2023-01-30T23:20:56.345Z,3.17
2023-01-30T23:23:26.782Z,3.17
2023-01-30T23:25:55.226Z,3.07
2023-01-30T23:28:23.638Z,2.83
2023-01-30T23:30:53.575Z,2.90
2023-01-30T23:33:24.464Z,2.97
2023-01-30T23:35:52.924Z,3.27
2023-01-30T23:38:26.423Z,3.23
2023-01-30T23:40:57.965Z,3.33
2023-01-30T23:43:26.570Z,3.03
2023-01-30T23:45:58.229Z,2.00
2023-01-30T23:48:27.325Z,2.33
2023-01-30T23:50:55.814Z,1.40
2023-01-30T23:53:24.364Z,2.93
2023-01-30T23:55:53.214Z,3.03
2023-01-30T23:58:21.908Z,3.10
